sensor_id;sensor_type;location;lat;lon;timestamp;pressure;altitude;pressure_sealevel;temperature;humidity
56944;BME280;42848;42.524;12.052;2022-12-01T00:01:14;96408.78;;;4.45;100.00
56944;BME280;42848;42.524;12.052;2022-12-01T00:03:40;96399.00;;;4.54;100.00
56944;BME280;42848;42.524;12.052;2022-12-01T00:06:10;96396.81;;;4.56;100.00
56944;BME280;42848;42.524;12.052;2022-12-01T00:08:37;96399.50;;;4.56;100.00
56944;BME280;42848;42.524;12.052;2022-12-01T00:11:05;96401.19;;;4.52;100.00
56944;BME280;42848;42.524;12.052;2022-12-01T00:13:31;96396.50;;;4.39;100.00
56944;BME280;42848;42.524;12.052;2022-12-01T00:15:57;96394.13;;;4.56;100.00
56944;BME280;42848;42.524;12.052;2022-12-01T00:18:22;96406.59;;;4.47;100.00
56944;BME280;42848;42.524;12.052;2022-12-01T00:20:48;96392.06;;;4.48;100.00
56944;BME280;42848;42.524;12.052;2022-12-01T00:23:20;96402.47;;;4.54;100.00
56944;BME280;42848;42.524;12.052;2022-12-01T00:25:46;96399.75;;;4.60;100.00
56944;BME280;42848;42.524;12.052;2022-12-01T00:28:11;96398.41;;;4.57;100.00
56944;BME280;42848;42.524;12.052;2022-12-01T00:30:37;96409.69;;;4.59;100.00
56944;BME280;42848;42.524;12.052;2022-12-01T00:33:03;96406.91;;;4.64;100.00
56944;BME280;42848;42.524;12.052;2022-12-01T00:35:28;96400.28;;;4.56;100.00
56944;BME280;42848;42.524;12.052;2022-12-01T00:37:54;96407.56;;;4.56;100.00
56944;BME280;42848;42.524;12.052;2022-12-01T00:40:19;96405.47;;;4.53;100.00
56944;BME280;42848;42.524;12.052;2022-12-01T00:42:45;96402.44;;;4.60;100.00
56944;BME280;42848;42.524;12.052;2022-12-01T00:45:11;96401.38;;;4.55;100.00
56944;BME280;42848;42.524;12.052;2022-12-01T00:47:36;96400.88;;;4.53;100.00
56944;BME280;42848;42.524;12.052;2022-12-01T00:50:02;96403.28;;;4.55;100.00
56944;BME280;42848;42.524;12.052;2022-12-01T00:52:28;96403.88;;;4.52;100.00
56944;BME280;42848;42.524;12.052;2022-12-01T00:54:53;96410.34;;;4.51;100.00
56944;BME280;42848;42.524;12.052;2022-12-01T00:57:19;96405.13;;;4.60;100.00
56944;BME280;42848;42.524;12.052;2022-12-01T00:59:45;96400.59;;;4.55;100.00
56944;BME280;42848;42.524;12.052;2022-12-01T01:02:12;96400.13;;;4.48;100.00
56944;BME280;42848;42.524;12.052;2022-12-01T01:04:38;96410.38;;;4.46;100.00
56944;BME280;42848;42.524;12.052;2022-12-01T01:07:03;96407.19;;;4.44;100.00
56944;BME280;42848;42.524;12.052;2022-12-01T01:09:30;96400.44;;;4.46;100.00
56944;BME280;42848;42.524;12.052;2022-12-01T01:11:57;96405.50;;;4.48;100.00
56944;BME280;42848;42.524;12.052;2022-12-01T01:14:23;96399.28;;;4.52;100.00
56944;BME280;42848;42.524;12.052;2022-12-01T01:16:49;96401.22;;;4.47;100.00
56944;BME280;42848;42.524;12.052;2022-12-01T01:19:16;96407.66;;;4.51;100.00
56944;BME280;42848;42.524;12.052;2022-12-01T01:21:42;96402.03;;;4.47;100.00
56944;BME280;42848;42.524;12.052;2022-12-01T01:24:07;96415.84;;;4.41;100.00
56944;BME280;42848;42.524;12.052;2022-12-01T01:26:33;96408.34;;;4.38;100.00
56944;BME280;42848;42.524;12.052;2022-12-01T01:29:03;96406.19;;;4.40;100.00
56944;BME280;42848;42.524;12.052;2022-12-01T01:31:29;96411.56;;;4.40;100.00
56944;BME280;42848;42.524;12.052;2022-12-01T01:33:55;96392.16;;;4.43;100.00
56944;BME280;42848;42.524;12.052;2022-12-01T01:36:22;96402.41;;;4.41;100.00
56944;BME280;42848;42.524;12.052;2022-12-01T01:38:48;96395.78;;;4.33;100.00
56944;BME280;42848;42.524;12.052;2022-12-01T01:41:19;96393.25;;;4.42;100.00
56944;BME280;42848;42.524;12.052;2022-12-01T01:43:48;96387.88;;;4.42;100.00
56944;BME280;42848;42.524;12.052;2022-12-01T01:46:27;96394.25;;;4.46;100.00
56944;BME280;42848;42.524;12.052;2022-12-01T01:49:00;96399.63;;;4.46;100.00
56944;BME280;42848;42.524;12.052;2022-12-01T01:51:49;96390.28;;;4.43;100.00
56944;BME280;42848;42.524;12.052;2022-12-01T01:54:22;96399.06;;;4.49;100.00
56944;BME280;42848;42.524;12.052;2022-12-01T01:56:51;96405.50;;;4.48;100.00
56944;BME280;42848;42.524;12.052;2022-12-01T01:59:29;96393.03;;;4.57;100.00
56944;BME280;42848;42.524;12.052;2022-12-01T02:02:04;96400.13;;;4.48;100.00
56944;BME280;42848;42.524;12.052;2022-12-01T02:04:34;96398.34;;;4.62;100.00
56944;BME280;42848;42.524;12.052;2022-12-01T02:07:00;96394.72;;;4.53;100.00
56944;BME280;42848;42.524;12.052;2022-12-01T02:09:26;96393.31;;;4.55;100.00
56944;BME280;42848;42.524;12.052;2022-12-01T02:17:36;96399.50;;;4.56;100.00
56944;BME280;42848;42.524;12.052;2022-12-01T02:31:26;96407.06;;;4.54;100.00
56944;BME280;42848;42.524;12.052;2022-12-01T02:34:00;96398.69;;;4.55;100.00
56944;BME280;42848;42.524;12.052;2022-12-01T02:36:40;96403.88;;;4.52;100.00
56944;BME280;42848;42.524;12.052;2022-12-01T02:39:21;96394.06;;;4.61;100.00
56944;BME280;42848;42.524;12.052;2022-12-01T02:42:03;96392.59;;;4.50;100.00
56944;BME280;42848;42.524;12.052;2022-12-01T02:44:43;96402.63;;;4.44;100.00
56944;BME280;42848;42.524;12.052;2022-12-01T02:47:14;96395.16;;;4.60;100.00
56944;BME280;42848;42.524;12.052;2022-12-01T02:49:47;96402.81;;;4.48;100.00
56944;BME280;42848;42.524;12.052;2022-12-01T02:52:15;96395.81;;;4.52;100.00
56944;BME280;42848;42.524;12.052;2022-12-01T02:54:43;96396.94;;;4.46;100.00
56944;BME280;42848;42.524;12.052;2022-12-01T02:57:13;96379.72;;;4.47;100.00
56944;BME280;42848;42.524;12.052;2022-12-01T02:59:41;96382.94;;;4.49;100.00
56944;BME280;42848;42.524;12.052;2022-12-01T03:10:30;96368.97;;;4.47;100.00
56944;BME280;42848;42.524;12.052;2022-12-01T03:15:35;96384.00;;;4.48;100.00
56944;BME280;42848;42.524;12.052;2022-12-01T03:23:20;96387.56;;;4.43;100.00
56944;BME280;42848;42.524;12.052;2022-12-01T03:25:50;96373.25;;;4.48;100.00
56944;BME280;42848;42.524;12.052;2022-12-01T03:28:26;96393.69;;;4.49;100.00
56944;BME280;42848;42.524;12.052;2022-12-01T03:30:59;96385.56;;;4.54;100.00
56944;BME280;42848;42.524;12.052;2022-12-01T03:33:33;96377.56;;;4.49;100.00
56944;BME280;42848;42.524;12.052;2022-12-01T03:36:08;96379.97;;;4.50;100.00
56944;BME280;42848;42.524;12.052;2022-12-01T03:38:35;96373.41;;;4.56;100.00
56944;BME280;42848;42.524;12.052;2022-12-01T03:41:08;96376.63;;;4.59;100.00
56944;BME280;42848;42.524;12.052;2022-12-01T03:43:40;96383.38;;;4.56;100.00
56944;BME280;42848;42.524;12.052;2022-12-01T03:46:10;96380.63;;;4.61;100.00
56944;BME280;42848;42.524;12.052;2022-12-01T03:48:38;96390.78;;;4.64;100.00
56944;BME280;42848;42.524;12.052;2022-12-01T03:57:02;96383.31;;;4.61;100.00
56944;BME280;42848;42.524;12.052;2022-12-01T03:59:30;96379.03;;;4.60;100.00
56944;BME280;42848;42.524;12.052;2022-12-01T04:02:00;96385.66;;;4.68;100.00
56944;BME280;42848;42.524;12.052;2022-12-01T04:04:26;96385.41;;;4.64;100.00
56944;BME280;42848;42.524;12.052;2022-12-01T04:06:52;96380.53;;;4.66;100.00
56944;BME280;42848;42.524;12.052;2022-12-01T04:09:17;96372.25;;;4.63;100.00
56944;BME280;42848;42.524;12.052;2022-12-01T04:11:43;96387.09;;;4.60;100.00
56944;BME280;42848;42.524;12.052;2022-12-01T04:14:27;96386.59;;;4.58;100.00
56944;BME280;42848;42.524;12.052;2022-12-01T04:16:54;96379.59;;;4.57;100.00
56944;BME280;42848;42.524;12.052;2022-12-01T04:19:20;96382.81;;;4.59;100.00
56944;BME280;42848;42.524;12.052;2022-12-01T04:21:46;96385.78;;;4.57;100.00
56944;BME280;42848;42.524;12.052;2022-12-01T04:24:12;96387.16;;;4.55;100.00
56944;BME280;42848;42.524;12.052;2022-12-01T04:26:38;96378.06;;;4.51;100.00
56944;BME280;42848;42.524;12.052;2022-12-01T04:29:06;96382.56;;;4.55;100.00
56944;BME280;42848;42.524;12.052;2022-12-01T04:31:32;96375.44;;;4.46;100.00
56944;BME280;42848;42.524;12.052;2022-12-01T04:33:58;96382.72;;;4.45;100.00
56944;BME280;42848;42.524;12.052;2022-12-01T04:36:25;96382.50;;;4.42;100.00
56944;BME280;42848;42.524;12.052;2022-12-01T04:38:51;96386.13;;;4.51;100.00
56944;BME280;42848;42.524;12.052;2022-12-01T04:41:17;96384.38;;;4.41;100.00
56944;BME280;42848;42.524;12.052;2022-12-01T04:43:42;96387.78;;;4.47;100.00
56944;BME280;42848;42.524;12.052;2022-12-01T04:46:09;96397.25;;;4.44;100.00
56944;BME280;42848;42.524;12.052;2022-12-01T04:48:36;96384.09;;;4.43;100.00
56944;BME280;42848;42.524;12.052;2022-12-01T04:51:04;96380.53;;;4.47;100.00
56944;BME280;42848;42.524;12.052;2022-12-01T04:53:30;96381.13;;;4.44;100.00
56944;BME280;42848;42.524;12.052;2022-12-01T04:55:58;96390.47;;;4.47;100.00
56944;BME280;42848;42.524;12.052;2022-12-01T04:58:24;96392.94;;;4.43;100.00
56944;BME280;42848;42.524;12.052;2022-12-01T05:00:49;96391.06;;;4.44;100.00
56944;BME280;42848;42.524;12.052;2022-12-01T05:03:15;96393.16;;;4.47;100.00
56944;BME280;42848;42.524;12.052;2022-12-01T05:05:41;96381.13;;;4.44;100.00
56944;BME280;42848;42.524;12.052;2022-12-01T05:08:07;96388.03;;;4.50;100.00
56944;BME280;42848;42.524;12.052;2022-12-01T05:10:36;96385.63;;;4.49;100.00
56944;BME280;42848;42.524;12.052;2022-12-01T05:13:03;96379.81;;;4.42;100.00
56944;BME280;42848;42.524;12.052;2022-12-01T05:15:30;96391.88;;;4.44;100.00
56944;BME280;42848;42.524;12.052;2022-12-01T05:17:56;96388.88;;;4.46;100.00
56944;BME280;42848;42.524;12.052;2022-12-01T05:20:24;96381.91;;;4.45;100.00
56944;BME280;42848;42.524;12.052;2022-12-01T05:23:08;96376.53;;;4.45;100.00
56944;BME280;42848;42.524;12.052;2022-12-01T05:25:34;96386.56;;;4.39;100.00
56944;BME280;42848;42.524;12.052;2022-12-01T05:28:02;96386.56;;;4.39;100.00
56944;BME280;42848;42.524;12.052;2022-12-01T05:30:28;96395.94;;;4.42;100.00
56944;BME280;42848;42.524;12.052;2022-12-01T05:32:54;96386.19;;;4.46;100.00
56944;BME280;42848;42.524;12.052;2022-12-01T05:35:19;96394.34;;;4.41;100.00
56944;BME280;42848;42.524;12.052;2022-12-01T05:37:45;96379.72;;;4.47;100.00
56944;BME280;42848;42.524;12.052;2022-12-01T05:40:11;96382.50;;;4.42;100.00
56944;BME280;42848;42.524;12.052;2022-12-01T05:42:36;96393.81;;;4.39;100.00
56944;BME280;42848;42.524;12.052;2022-12-01T05:45:02;96391.06;;;4.44;100.00
56944;BME280;42848;42.524;12.052;2022-12-01T05:47:28;96389.97;;;4.45;100.00
56944;BME280;42848;42.524;12.052;2022-12-01T05:49:53;96396.78;;;4.37;100.00
56944;BME280;42848;42.524;12.052;2022-12-01T05:52:19;96403.50;;;4.40;100.00
56944;BME280;42848;42.524;12.052;2022-12-01T05:54:45;96399.75;;;4.36;100.00
56944;BME280;42848;42.524;12.052;2022-12-01T05:57:10;96391.66;;;4.41;100.00
56944;BME280;42848;42.524;12.052;2022-12-01T05:59:36;96398.97;;;4.35;100.00
56944;BME280;42848;42.524;12.052;2022-12-01T06:02:01;96395.06;;;4.46;100.00
56944;BME280;42848;42.524;12.052;2022-12-01T06:04:27;96399.63;;;4.46;100.00
56944;BME280;42848;42.524;12.052;2022-12-01T06:06:53;96392.38;;;4.46;100.00
56944;BME280;42848;42.524;12.052;2022-12-01T06:09:18;96394.56;;;4.44;100.00
56944;BME280;42848;42.524;12.052;2022-12-01T06:11:44;96394.25;;;4.46;100.00
56944;BME280;42848;42.524;12.052;2022-12-01T06:14:10;96397.19;;;4.49;100.00
56944;BME280;42848;42.524;12.052;2022-12-01T06:16:35;96400.59;;;4.55;100.00
56944;BME280;42848;42.524;12.052;2022-12-01T06:19:01;96408.16;;;4.53;100.00
56944;BME280;42848;42.524;12.052;2022-12-01T06:21:26;96403.56;;;4.53;100.00
56944;BME280;42848;42.524;12.052;2022-12-01T06:23:52;96401.69;;;4.54;100.00
56944;BME280;42848;42.524;12.052;2022-12-01T06:26:18;96410.78;;;4.58;100.00
56944;BME280;42848;42.524;12.052;2022-12-01T06:28:44;96421.44;;;4.63;100.00
56944;BME280;42848;42.524;12.052;2022-12-01T06:31:10;96412.88;;;4.61;100.00
56944;BME280;42848;42.524;12.052;2022-12-01T06:33:35;96415.56;;;4.61;100.00
56944;BME280;42848;42.524;12.052;2022-12-01T06:36:05;96419.28;;;4.65;100.00
56944;BME280;42848;42.524;12.052;2022-12-01T06:38:35;96420.31;;;4.69;100.00
56944;BME280;42848;42.524;12.052;2022-12-01T06:41:02;96431.06;;;4.69;100.00
56944;BME280;42848;42.524;12.052;2022-12-01T06:43:28;96430.03;;;4.65;100.00
56944;BME280;42848;42.524;12.052;2022-12-01T06:45:54;96428.38;;;4.69;100.00
56944;BME280;42848;42.524;12.052;2022-12-01T06:48:20;96421.69;;;4.67;100.00
56944;BME280;42848;42.524;12.052;2022-12-01T06:50:45;96430.56;;;4.67;100.00
56944;BME280;42848;42.524;12.052;2022-12-01T06:53:11;96431.84;;;4.70;100.00
56944;BME280;42848;42.524;12.052;2022-12-01T06:55:37;96431.06;;;4.69;100.00
56944;BME280;42848;42.524;12.052;2022-12-01T06:58:04;96433.16;;;4.72;100.00
56944;BME280;42848;42.524;12.052;2022-12-01T07:00:30;96437.44;;;4.73;100.00
56944;BME280;42848;42.524;12.052;2022-12-01T07:02:56;96429.09;;;4.75;100.00
56944;BME280;42848;42.524;12.052;2022-12-01T07:05:22;96437.69;;;4.77;100.00
56944;BME280;42848;42.524;12.052;2022-12-01T07:07:47;96430.34;;;4.82;100.00
56944;BME280;42848;42.524;12.052;2022-12-01T07:10:14;96437.09;;;4.80;100.00
56944;BME280;42848;42.524;12.052;2022-12-01T07:12:40;96436.09;;;4.76;100.00
56944;BME280;42848;42.524;12.052;2022-12-01T07:15:07;96441.09;;;4.82;100.00
56944;BME280;42848;42.524;12.052;2022-12-01T07:17:34;96449.97;;;4.83;100.00
56944;BME280;42848;42.524;12.052;2022-12-01T07:20:00;96453.44;;;4.83;100.00
56944;BME280;42848;42.524;12.052;2022-12-01T07:22:27;96452.00;;;4.91;100.00
56944;BME280;42848;42.524;12.052;2022-12-01T07:24:53;96448.75;;;4.94;100.00
56944;BME280;42848;42.524;12.052;2022-12-01T07:27:19;96452.75;;;4.97;100.00
56944;BME280;42848;42.524;12.052;2022-12-01T07:29:44;96452.75;;;4.97;100.00
56944;BME280;42848;42.524;12.052;2022-12-01T07:32:10;96453.75;;;5.01;100.00
56944;BME280;42848;42.524;12.052;2022-12-01T07:34:36;96456.69;;;5.04;100.00
56944;BME280;42848;42.524;12.052;2022-12-01T07:37:01;96459.28;;;5.28;100.00
56944;BME280;42848;42.524;12.052;2022-12-01T07:39:27;96458.31;;;5.19;100.00
56944;BME280;42848;42.524;12.052;2022-12-01T07:41:52;96462.41;;;5.17;100.00
56944;BME280;42848;42.524;12.052;2022-12-01T07:44:18;96464.50;;;5.20;100.00
56944;BME280;42848;42.524;12.052;2022-12-01T07:46:44;96464.44;;;5.25;100.00
56944;BME280;42848;42.524;12.052;2022-12-01T07:49:09;96459.88;;;5.25;100.00
56944;BME280;42848;42.524;12.052;2022-12-01T07:51:39;96462.56;;;5.25;100.00
56944;BME280;42848;42.524;12.052;2022-12-01T07:54:04;96468.94;;;5.29;100.00
56944;BME280;42848;42.524;12.052;2022-12-01T07:56:31;96474.25;;;5.34;100.00
56944;BME280;42848;42.524;12.052;2022-12-01T07:58:57;96469.00;;;5.43;100.00
56944;BME280;42848;42.524;12.052;2022-12-01T08:01:23;96469.94;;;5.52;100.00
56944;BME280;42848;42.524;12.052;2022-12-01T08:03:51;96473.50;;;5.48;100.00
56944;BME280;42848;42.524;12.052;2022-12-01T08:06:18;96465.97;;;5.50;100.00
56944;BME280;42848;42.524;12.052;2022-12-01T08:08:45;96471.75;;;5.57;100.00
56944;BME280;42848;42.524;12.052;2022-12-01T08:11:13;96467.38;;;5.61;100.00
56944;BME280;42848;42.524;12.052;2022-12-01T08:13:40;96466.72;;;5.69;100.00
56944;BME280;42848;42.524;12.052;2022-12-01T08:16:08;96476.91;;;5.72;100.00
56944;BME280;42848;42.524;12.052;2022-12-01T08:18:35;96474.19;;;5.72;100.00
56944;BME280;42848;42.524;12.052;2022-12-01T08:21:01;96479.78;;;5.76;100.00
56944;BME280;42848;42.524;12.052;2022-12-01T08:23:27;96467.66;;;5.78;100.00
56944;BME280;42848;42.524;12.052;2022-12-01T08:25:53;96470.25;;;5.83;100.00
56944;BME280;42848;42.524;12.052;2022-12-01T08:28:19;96476.66;;;5.87;100.00
56944;BME280;42848;42.524;12.052;2022-12-01T08:30:46;96481.47;;;5.90;100.00
56944;BME280;42848;42.524;12.052;2022-12-01T08:33:11;96472.28;;;5.91;100.00
56944;BME280;42848;42.524;12.052;2022-12-01T08:35:37;96476.50;;;5.97;100.00
56944;BME280;42848;42.524;12.052;2022-12-01T08:38:03;96473.22;;;6.01;100.00
56944;BME280;42848;42.524;12.052;2022-12-01T08:40:29;96494.25;;;5.98;100.00
56944;BME280;42848;42.524;12.052;2022-12-01T08:42:54;96482.50;;;5.94;100.00
56944;BME280;42848;42.524;12.052;2022-12-01T08:45:20;96481.22;;;6.06;100.00
56944;BME280;42848;42.524;12.052;2022-12-01T08:47:48;96475.72;;;6.11;100.00
56944;BME280;42848;42.524;12.052;2022-12-01T08:50:14;96480.31;;;6.10;100.00
56944;BME280;42848;42.524;12.052;2022-12-01T08:52:40;96484.91;;;6.10;100.00
56944;BME280;42848;42.524;12.052;2022-12-01T08:55:06;96484.72;;;6.20;100.00
56944;BME280;42848;42.524;12.052;2022-12-01T08:57:32;96484.34;;;6.26;100.00
56944;BME280;42848;42.524;12.052;2022-12-01T08:59:58;96490.72;;;6.31;100.00
56944;BME280;42848;42.524;12.052;2022-12-01T09:02:23;96487.06;;;6.40;100.00
56944;BME280;42848;42.524;12.052;2022-12-01T09:04:49;96494.44;;;6.35;100.00
56944;BME280;42848;42.524;12.052;2022-12-01T09:07:17;96501.13;;;6.37;100.00
56944;BME280;42848;42.524;12.052;2022-12-01T09:09:44;96506.91;;;6.44;100.00
56944;BME280;42848;42.524;12.052;2022-12-01T09:12:10;96499.53;;;6.50;100.00
56944;BME280;42848;42.524;12.052;2022-12-01T09:14:41;96502.13;;;6.55;100.00
56944;BME280;42848;42.524;12.052;2022-12-01T09:17:08;96502.34;;;6.59;100.00
56944;BME280;42848;42.524;12.052;2022-12-01T09:19:34;96501.34;;;6.68;100.00
56944;BME280;42848;42.524;12.052;2022-12-01T09:22:00;96508.66;;;6.68;100.00
56944;BME280;42848;42.524;12.052;2022-12-01T09:24:27;96495.75;;;6.65;100.00
56944;BME280;42848;42.524;12.052;2022-12-01T09:26:57;96507.91;;;6.76;100.00
56944;BME280;42848;42.524;12.052;2022-12-01T09:29:24;96508.22;;;6.74;100.00
56944;BME280;42848;42.524;12.052;2022-12-01T09:31:50;96503.13;;;6.73;100.00
56944;BME280;42848;42.524;12.052;2022-12-01T09:34:19;96504.72;;;6.74;100.00
56944;BME280;42848;42.524;12.052;2022-12-01T09:36:45;96501.44;;;6.77;100.00
56944;BME280;42848;42.524;12.052;2022-12-01T09:39:17;96504.91;;;6.91;100.00
56944;BME280;42848;42.524;12.052;2022-12-01T09:41:53;96509.69;;;6.94;100.00
56944;BME280;42848;42.524;12.052;2022-12-01T09:47:09;96513.28;;;7.03;100.00
56944;BME280;42848;42.524;12.052;2022-12-01T09:52:22;96520.69;;;7.11;100.00
56944;BME280;42848;42.524;12.052;2022-12-01T09:54:48;96517.50;;;7.09;100.00
56944;BME280;42848;42.524;12.052;2022-12-01T09:57:34;96514.88;;;7.18;100.00
56944;BME280;42848;42.524;12.052;2022-12-01T10:00:11;96516.06;;;7.26;100.00
56944;BME280;42848;42.524;12.052;2022-12-01T10:03:04;96506.78;;;7.32;100.00
56944;BME280;42848;42.524;12.052;2022-12-01T10:05:58;96503.56;;;7.30;100.00
56944;BME280;42848;42.524;12.052;2022-12-01T10:08:30;96495.84;;;7.37;100.00
56944;BME280;42848;42.524;12.052;2022-12-01T10:11:10;96498.06;;;7.21;100.00
56944;BME280;42848;42.524;12.052;2022-12-01T10:13:39;96493.38;;;7.27;100.00
56944;BME280;42848;42.524;12.052;2022-12-01T10:16:08;96486.69;;;7.24;100.00
56944;BME280;42848;42.524;12.052;2022-12-01T10:18:45;96493.84;;;7.29;100.00
56944;BME280;42848;42.524;12.052;2022-12-01T10:28:23;96488.03;;;7.35;100.00
56944;BME280;42848;42.524;12.052;2022-12-01T10:30:57;96490.34;;;7.42;100.00
56944;BME280;42848;42.524;12.052;2022-12-01T10:33:33;96489.00;;;7.53;100.00
56944;BME280;42848;42.524;12.052;2022-12-01T10:36:00;96486.66;;;7.60;100.00
56944;BME280;42848;42.524;12.052;2022-12-01T10:38:29;96483.34;;;7.63;100.00
56944;BME280;42848;42.524;12.052;2022-12-01T10:40:56;96491.56;;;7.58;100.00
56944;BME280;42848;42.524;12.052;2022-12-01T10:43:49;96487.78;;;7.59;100.00
56944;BME280;42848;42.524;12.052;2022-12-01T10:46:24;96486.53;;;7.65;100.00
56944;BME280;42848;42.524;12.052;2022-12-01T10:48:57;96475.88;;;7.60;100.00
56944;BME280;42848;42.524;12.052;2022-12-01T10:51:24;96478.31;;;7.70;100.00
56944;BME280;42848;42.524;12.052;2022-12-01T10:53:58;96484.13;;;7.64;100.00
56944;BME280;42848;42.524;12.052;2022-12-01T10:56:24;96472.91;;;7.70;100.00
56944;BME280;42848;42.524;12.052;2022-12-01T10:58:55;96474.81;;;7.70;100.00
56944;BME280;42848;42.524;12.052;2022-12-01T11:01:30;96477.06;;;7.77;100.00
56944;BME280;42848;42.524;12.052;2022-12-01T11:06:30;96471.38;;;7.78;100.00
56944;BME280;42848;42.524;12.052;2022-12-01T11:09:00;96473.47;;;7.81;100.00
56944;BME280;42848;42.524;12.052;2022-12-01T11:11:39;96466.16;;;7.82;100.00
56944;BME280;42848;42.524;12.052;2022-12-01T11:14:24;96461.72;;;7.86;100.00
56944;BME280;42848;42.524;12.052;2022-12-01T11:16:51;96466.63;;;7.84;100.00
56944;BME280;42848;42.524;12.052;2022-12-01T11:19:31;96469.53;;;7.87;100.00
56944;BME280;42848;42.524;12.052;2022-12-01T11:22:16;96461.34;;;8.01;100.00
56944;BME280;42848;42.524;12.052;2022-12-01T11:25:02;96467.09;;;8.08;100.00
56944;BME280;42848;42.524;12.052;2022-12-01T11:27:46;96469.94;;;8.03;100.00
56944;BME280;42848;42.524;12.052;2022-12-01T11:30:26;96457.25;;;8.12;100.00
56944;BME280;42848;42.524;12.052;2022-12-01T11:33:02;96463.97;;;8.15;100.00
56944;BME280;42848;42.524;12.052;2022-12-01T11:35:31;96460.09;;;8.07;100.00
56944;BME280;42848;42.524;12.052;2022-12-01T11:38:00;96464.75;;;8.15;100.00
56944;BME280;42848;42.524;12.052;2022-12-01T11:40:30;96467.78;;;8.14;100.00
56944;BME280;42848;42.524;12.052;2022-12-01T11:42:59;96461.38;;;8.10;100.00
56944;BME280;42848;42.524;12.052;2022-12-01T11:45:34;96456.03;;;8.18;100.00
56944;BME280;42848;42.524;12.052;2022-12-01T11:48:14;96459.03;;;8.17;100.00
56944;BME280;42848;42.524;12.052;2022-12-01T11:50:45;96455.22;;;8.18;100.00
56944;BME280;42848;42.524;12.052;2022-12-01T11:53:27;96453.06;;;8.28;100.00
56944;BME280;42848;42.524;12.052;2022-12-01T11:56:14;96457.97;;;8.26;100.00
56944;BME280;42848;42.524;12.052;2022-12-01T11:58:41;96455.75;;;8.28;100.00
56944;BME280;42848;42.524;12.052;2022-12-01T12:07:01;96449.63;;;8.37;100.00
56944;BME280;42848;42.524;12.052;2022-12-01T12:12:51;96457.31;;;8.52;100.00
56944;BME280;42848;42.524;12.052;2022-12-01T12:21:13;96452.88;;;8.56;100.00
56944;BME280;42848;42.524;12.052;2022-12-01T12:26:24;96453.03;;;8.51;100.00
56944;BME280;42848;42.524;12.052;2022-12-01T12:29:18;96449.03;;;8.48;100.00
56944;BME280;42848;42.524;12.052;2022-12-01T12:37:40;96443.00;;;8.51;100.00
56944;BME280;42848;42.524;12.052;2022-12-01T12:40:17;96447.66;;;8.60;100.00
56944;BME280;42848;42.524;12.052;2022-12-01T12:42:57;96446.34;;;8.57;100.00
56944;BME280;42848;42.524;12.052;2022-12-01T12:46:01;96454.34;;;8.62;100.00
56944;BME280;42848;42.524;12.052;2022-12-01T12:51:35;96455.63;;;8.73;100.00
56944;BME280;42848;42.524;12.052;2022-12-01T12:56:46;96450.69;;;8.75;100.00
56944;BME280;42848;42.524;12.052;2022-12-01T13:05:11;96447.69;;;8.86;100.00
56944;BME280;42848;42.524;12.052;2022-12-01T13:13:49;96436.25;;;8.89;100.00
56944;BME280;42848;42.524;12.052;2022-12-01T13:15:45;96447.72;;;8.94;100.00
56944;BME280;42848;42.524;12.052;2022-12-01T13:18:26;96443.59;;;8.97;100.00
56944;BME280;42848;42.524;12.052;2022-12-01T13:20:54;96448.38;;;9.00;100.00
56944;BME280;42848;42.524;12.052;2022-12-01T13:23:21;96437.06;;;8.98;100.00
56944;BME280;42848;42.524;12.052;2022-12-01T13:25:51;96447.56;;;8.99;100.00
56944;BME280;42848;42.524;12.052;2022-12-01T13:28:49;96437.88;;;9.07;100.00
56944;BME280;42848;42.524;12.052;2022-12-01T13:31:18;96445.34;;;9.01;100.00
56944;BME280;42848;42.524;12.052;2022-12-01T13:34:00;96438.19;;;9.05;100.00
56944;BME280;42848;42.524;12.052;2022-12-01T13:36:28;96436.13;;;9.11;100.00
56944;BME280;42848;42.524;12.052;2022-12-01T13:38:58;96435.97;;;9.16;100.00
56944;BME280;42848;42.524;12.052;2022-12-01T13:41:31;96440.09;;;9.13;100.00
56944;BME280;42848;42.524;12.052;2022-12-01T13:44:01;96439.28;;;9.13;100.00
56944;BME280;42848;42.524;12.052;2022-12-01T13:49:35;96441.22;;;9.21;100.00
56944;BME280;42848;42.524;12.052;2022-12-01T13:57:44;96448.41;;;9.17;100.00
56944;BME280;42848;42.524;12.052;2022-12-01T14:00:27;96440.44;;;9.21;100.00
56944;BME280;42848;42.524;12.052;2022-12-01T14:08:29;96442.03;;;9.30;100.00
56944;BME280;42848;42.524;12.052;2022-12-01T14:16:16;96445.19;;;9.32;100.00
56944;BME280;42848;42.524;12.052;2022-12-01T14:18:56;96439.16;;;9.35;100.00
56944;BME280;42848;42.524;12.052;2022-12-01T14:21:41;96440.13;;;9.39;100.00
56944;BME280;42848;42.524;12.052;2022-12-01T14:24:23;96445.38;;;9.36;100.00
56944;BME280;42848;42.524;12.052;2022-12-01T14:26:50;96442.50;;;9.41;100.00
56944;BME280;42848;42.524;12.052;2022-12-01T14:29:28;96432.16;;;9.34;100.00
56944;BME280;42848;42.524;12.052;2022-12-01T14:34:28;96427.34;;;9.49;100.00
56944;BME280;42848;42.524;12.052;2022-12-01T14:37:15;96430.25;;;9.44;100.00
56944;BME280;42848;42.524;12.052;2022-12-01T14:39:46;96437.56;;;9.34;100.00
56944;BME280;42848;42.524;12.052;2022-12-01T14:42:31;96429.59;;;9.29;100.00
56944;BME280;42848;42.524;12.052;2022-12-01T14:45:52;96432.31;;;9.21;100.00
56944;BME280;42848;42.524;12.052;2022-12-01T14:48:31;96427.06;;;9.24;100.00
56944;BME280;42848;42.524;12.052;2022-12-01T14:53:45;96440.09;;;9.31;100.00
56944;BME280;42848;42.524;12.052;2022-12-01T14:56:17;96435.19;;;9.16;100.00
56944;BME280;42848;42.524;12.052;2022-12-01T14:59:12;96430.69;;;9.11;100.00
56944;BME280;42848;42.524;12.052;2022-12-01T15:01:39;96437.09;;;9.15;100.00
56944;BME280;42848;42.524;12.052;2022-12-01T15:04:05;96425.47;;;9.06;100.00